Flight Track Log - Related Links

Times and Time Zones

All times are in EDT time to prevent confusion due to time zone crossing. See the N319EE flight status page for this flight to view local times or setup timezone preferences in your user account.

Time Position Orientation Groundspeed Altitude Reporting Facility
EDT Latitude Longitude Course Direction KTS MPH feet Rate Location/Type
Mon 03:58:27 PM 42.2919 -75.8842 67° East 210 242 6,800  Level Boston Center
Mon 03:59:29 PM 42.3172 -75.8042 67° East 230 265 7,800 1,550 Climbing Boston Center
Mon 04:00:27 PM 42.3444 -75.7297 64° Northeast 223 257 9,900 1,916 Climbing Boston Center
Mon 04:01:28 PM 42.3639 -75.6353 74° East 239 275 11,600 1,600 Climbing Boston Center
Mon 04:02:00 PM 42.3744 -75.3892 69° East  Level Estimated
Mon 04:02:27 PM 42.3872 -75.5436 71° East 246 283 13,100  Level Boston Center
Mon 04:03:00 PM 42.4053 -75.2924 67° East  Level FlightAware Approximate
Mon 04:03:27 PM 42.4125 -75.4575 68° East 246 283 14,400  Level Boston Center
Mon 04:04:28 PM 42.4336 -75.3658 73° East 246 283 15,400 1,140 Climbing Boston Center
Mon 04:05:28 PM 42.4586 -75.2769 69° East 251 289 16,700 1,119 Climbing Boston Center
Mon 04:06:26 PM 42.4817 -75.1878 71° East 246 283 17,600 915 Climbing Boston Center
Mon 04:07:26 PM 42.5047 -75.0989 71° East 241 277 18,500 850 Climbing Boston Center
Mon 04:08:26 PM 42.5275 -75.0125 70° East 241 277 19,300 689 Climbing Boston Center
Mon 04:09:28 PM 42.5506 -74.9231 71° East 241 277 19,900 750 Climbing Boston Center
Mon 04:10:26 PM 42.5731 -74.8339 71° East 241 277 20,800 744 Climbing Boston Center
Mon 04:11:29 PM 42.5981 -74.7444 69° East 241 277 21,400 645 Climbing Boston Center
Mon 04:12:27 PM 42.6183 -74.6578 72° East 241 277 22,100 763 Climbing Boston Center
Mon 04:13:27 PM 42.6431 -74.5683 69° East 241 277 22,900 446 Climbing Boston Center
Mon 04:14:28 PM 42.6656 -74.4731 72° East 246 283 23,000 50 Climbing Boston Center
Mon 04:15:28 PM 42.6925 -74.3694 70° East 263 303 23,000  Level Boston Center
Mon 04:16:26 PM 42.7214 -74.2600 70° East 282 325 23,000  Level Boston Center
Mon 04:17:26 PM 42.7500 -74.1536 70° East 293 337 23,000  Level Boston Center
Mon 04:18:27 PM 42.7747 -74.0467 72° East 293 337 23,000  Level Boston Center
Mon 04:19:28 PM 42.8011 -73.9369 72° East 301 346 23,000  Level Boston Center
Mon 04:20:28 PM 42.8503 -73.8419 55° Northeast 301 346 23,000  Level Boston Center
Mon 04:21:26 PM 42.9200 -73.7528 43° Northeast 315 362 23,000  Level Boston Center
Mon 04:22:26 PM 42.9897 -73.6664 42° Northeast 321 369 23,000  Level Boston Center
Mon 04:23:28 PM 43.0575 -73.5767 44° Northeast 326 375 23,000  Level Boston Center
Mon 04:24:26 PM 43.1125 -73.4839 51° Northeast 326 375 23,000  Level Boston Center
Mon 04:25:26 PM 43.1694 -73.4022 46° Northeast 326 375 23,000  Level Boston Center
Mon 04:26:26 PM 43.2308 -73.3092 48° Northeast 326 375 23,000 50 Level Boston Center
Mon 04:27:27 PM 43.2753 -73.2014 60° Northeast 314 361 23,100 -443 Climbing Boston Center
Mon 04:28:28 PM 43.3072 -73.0933 68° East 294 338 22,100 -857 Descending Boston Center
Mon 04:29:26 PM 43.3181 -72.9881 82° East 289 333 21,400 -555 Descending Boston Center
Mon 04:30:27 PM 43.3144 -72.8853 93° East 274 315 21,000 -198 Descending Boston Center
Mon 04:31:27 PM 43.3211 -72.7797 85° East 274 315 21,000  Level Boston Center
Mon 04:32:28 PM 43.3317 -72.6769 82° East 274 315 21,000  Level Boston Center
Mon 04:33:28 PM 43.3403 -72.5686 84° East 274 315 21,000 -407 Level Boston Center
Mon 04:34:26 PM 43.3486 -72.4572 84° East 274 315 20,200 -1,017 Descending Boston Center
Mon 04:35:26 PM 43.3611 -72.3286 82° East 302 348 19,000 -1,140 Descending Boston Center
Mon 04:36:27 PM 43.3714 -72.2144 83° East 336 387 17,900 -1,041 Descending Boston Center
Mon 04:37:27 PM 43.3856 -72.0744 82° East 336 387 16,900 -893 Descending Boston Center
Mon 04:38:28 PM 43.3933 -71.9572 85° East 336 387 16,100 -992 Descending Boston Center
Mon 04:39:28 PM 43.4075 -71.8200 82° East 326 375 14,900 -1,050 Descending Boston Center
Mon 04:40:28 PM 43.4172 -71.7083 83° East 326 375 14,000 -559 Descending Boston Center
Mon 04:41:26 PM 43.4267 -71.5797 84° East 321 369 13,800 -101 Descending Boston Center
Mon 04:42:27 PM 43.4383 -71.4681 82° East 305 351 13,800 -50 Level Boston Center
Mon 04:43:27 PM 43.4478 -71.3533 83° East 293 337 13,700 -843 Descending Boston Center
Mon 04:44:28 PM 43.4944 -71.2467 59° Northeast 322 371 12,100 -1,388 Descending Boston Center
Mon 04:45:28 PM 43.5539 -71.1422 52° Northeast 334 384 10,900 -864 Descending Boston Center
Mon 04:46:26 PM 43.5797 -71.0358 71° East 304 350 10,400 -958 Descending Boston Center
Mon 04:47:27 PM 43.5992 -70.9236 77° East 288 331 9,000 -1,785 Descending Boston Center
Mon 04:48:27 PM 43.6142 -70.8169 79° East 288 331 6,800 -2,083 Descending Boston Center
Mon 04:49:28 PM 43.6297 -70.7247 77° East 274 315 4,800 -1,785 Descending Boston Center
Mon 04:50:28 PM 43.6469 -70.6267 76° East 244 281 3,200 -1,169 Descending Boston Center
Mon 04:51:26 PM 43.6561 -70.5575 80° East 214 246 2,500 -458 Descending Boston Center
Mon 04:52:26 PM 43.6589 -70.4772 87° East 192 221 2,300 -500 Descending Boston Center
Mon 04:53:26 PM 43.6539 -70.4228 97° East 160 184 1,500 -793 Descending Boston Center
Mon 04:54:27 PM 43.6486 -70.3656 97° East 139 160 700 -639 Descending Boston Center
Mon 04:55:28 PM 43.6458 -70.3197 95° East 134 154 200 5,107 Descending Boston Center
Mon 04:56:28 PM 43.6386 -70.2711 102° East 134 154 11,000 5,492 Climbing Boston Center
Mon 04:57:26 PM 43.6333 -70.2197 98° East 134 154 11,000  Level Boston Center
Mon 04:58:27 PM 43.6264 -70.1711 101° East 134 154 11,000  Level Boston Center
Mon 04:59:28 PM 43.6236 -70.1397 97° East 134 154 11,000  Level Boston Center
Mon 05:01:00 PM 43.6328 -70.2913 275° West  Level FlightAware Approximate
Mon 05:08:00 PM 43.6333 -70.3000 278° West  Level FlightAware Approximate
Mon 05:09:00 PM 43.6456 -70.3086 278° West  Level Estimated
Mon 05:10:00 PM 43.6456 -70.3086 278° West  Level Estimated
Mon 05:11:00 PM 43.6456 -70.3086 278° West  Level Estimated

Login

Don't have an account? Register now (free) for customized features, flight alerts, and more!